Atlanticbeach, North Carolina
Current Conditions -  °F | °C
As of 10:58 PM on Sunday 21 Dec 2014 (Local Time) from KMRH Reporting Station
Light Rain Light Rain  
Wind Chill: 39°   Ceiling: 4700
Heat Index: 45°   Visibility: 8mi
Dew Point: 43°   Wind: 12mph
Humidity: 93%   Direction: 30°NNE
Pressure: 30.18"   Gusts: 20mph
Location:  34.6984°N, 76.7775°W
Report Text: KMRH 220358Z AUTO 03010G17KT 8SM -RA OVC047 07/06 A3018 RMK AO2 SLP221 P0000 I1000 T00720061 TSNO
Loading
Personal Weather Stations






























Interactive Weather Map New forecast layout! Learn more

10-Day Weather Forecast

Advertisements
Track Severe Weather on mobile